Time;durP1;ratioP1;P1;durP2;ratioP2;P2;SDS_P1;SDS_P2;PMS_P1;PMS_P2;Temp;Humidity;BMP_temperature;BMP_pressure;BME280_temperature;BME280_humidity;BME280_pressure;Samples;Min_cycle;Max_cycle;Signal;HPM_P1;HPM_P2
2023/12/19 00:00:09;;;;;;;10.88;4.50;;;12.70;1.00;;;;;;4970749;28;20560;-37
2023/12/19 00:02:34;;;;;;;11.07;4.15;;;12.80;1.00;;;;;;4971040;28;20050;-35
2023/12/19 00:05:00;;;;;;;7.30;3.83;;;13.20;1.00;;;;;;4970404;28;20418;-35
2023/12/19 00:07:29;;;;;;;8.35;3.85;;;13.50;1.00;;;;;;4970443;28;20035;-37
2023/12/19 00:09:55;;;;;;;10.30;4.35;;;13.20;1.00;;;;;;4970550;28;20054;-35
2023/12/19 00:12:20;;;;;;;9.20;4.18;;;13.00;1.00;;;;;;4971151;28;20038;-37
2023/12/19 00:14:46;;;;;;;9.00;3.88;;;12.70;1.00;;;;;;4971245;28;20077;-35
2023/12/19 00:17:12;;;;;;;9.40;4.38;;;12.90;1.00;;;;;;4985101;28;20039;-41
2023/12/19 00:19:37;;;;;;;9.73;3.97;;;13.00;1.00;;;;;;4970864;28;20030;-36
2023/12/19 00:22:03;;;;;;;8.82;3.78;;;13.40;1.00;;;;;;4970691;28;20042;-38
2023/12/19 00:24:29;;;;;;;10.70;4.10;;;12.70;1.00;;;;;;4970776;28;20046;-36
2023/12/19 00:26:54;;;;;;;9.20;4.20;;;13.20;1.00;;;;;;4970137;28;20030;-35
2023/12/19 00:29:20;;;;;;;8.38;3.38;;;13.00;1.00;;;;;;4971009;28;20561;-34
2023/12/19 00:31:45;;;;;;;10.90;4.22;;;13.30;1.00;;;;;;4969206;28;20120;-37
2023/12/19 00:34:13;;;;;;;7.65;3.90;;;12.90;1.00;;;;;;4970531;28;20042;-37
2023/12/19 00:36:39;;;;;;;9.13;4.05;;;13.30;1.00;;;;;;4967807;28;20726;-35
2023/12/19 00:39:05;;;;;;;10.60;4.80;;;13.20;1.00;;;;;;4979035;28;20122;-35
2023/12/19 00:41:30;;;;;;;11.88;4.30;;;13.70;1.00;;;;;;4969030;28;20074;-38
2023/12/19 00:43:56;;;;;;;8.13;3.60;;;13.60;1.00;;;;;;4968937;28;20121;-38
2023/12/19 00:46:22;;;;;;;11.75;3.92;;;13.60;1.00;;;;;;4969996;28;20034;-35
2023/12/19 00:48:47;;;;;;;9.80;4.00;;;13.50;1.00;;;;;;4968887;28;20093;-35
2023/12/19 00:51:13;;;;;;;6.70;3.53;;;13.50;1.00;;;;;;4948942;28;20133;-35
2023/12/19 00:53:40;;;;;;;9.10;3.90;;;13.10;1.00;;;;;;4967300;28;20066;-38
2023/12/19 00:56:09;;;;;;;9.68;4.20;;;13.70;1.00;;;;;;4979066;28;20043;-35
2023/12/19 00:58:39;;;;;;;7.85;3.65;;;13.00;1.00;;;;;;4965296;28;20351;-38
2023/12/19 01:01:05;;;;;;;8.45;3.78;;;12.90;1.00;;;;;;4956745;28;20094;-34
2023/12/19 01:03:32;;;;;;;8.57;3.97;;;;;;;;;;4983671;28;20043;-38
2023/12/19 01:05:59;;;;;;;8.90;3.72;;;13.70;1.00;;;;;;4967726;28;20046;-41
2023/12/19 01:08:25;;;;;;;9.02;3.78;;;13.00;1.00;;;;;;4967924;28;20489;-35
2023/12/19 01:10:50;;;;;;;8.80;3.72;;;13.50;1.00;;;;;;4984526;28;20046;-34
2023/12/19 01:13:16;;;;;;;8.57;3.53;;;12.90;1.00;;;;;;4968979;28;20047;-35
2023/12/19 01:15:42;;;;;;;8.23;3.40;;;12.70;1.00;;;;;;4967431;28;20414;-38
2023/12/19 01:18:07;;;;;;;7.50;3.35;;;12.80;1.00;;;;;;4965294;28;20498;-35
2023/12/19 01:20:33;;;;;;;8.73;3.60;;;13.40;1.00;;;;;;4967217;28;20067;-34
2023/12/19 01:22:58;;;;;;;7.75;3.70;;;13.40;1.00;;;;;;4969830;28;20093;-35
2023/12/19 01:25:24;;;;;;;8.57;3.05;;;13.50;1.00;;;;;;4962401;28;20039;-39
2023/12/19 01:27:49;;;;;;;6.88;3.50;;;13.80;1.00;;;;;;4969584;28;20478;-35
2023/12/19 01:30:15;;;;;;;7.00;3.55;;;13.30;1.00;;;;;;4968697;28;20042;-36
2023/12/19 01:32:41;;;;;;;7.45;3.40;;;13.60;1.00;;;;;;4952610;28;20035;-35
2023/12/19 01:35:07;;;;;;;9.23;3.38;;;13.60;1.00;;;;;;4967084;28;20133;-37
2023/12/19 01:37:33;;;;;;;7.90;4.07;;;13.50;1.00;;;;;;4967657;28;20148;-34
2023/12/19 01:39:58;;;;;;;6.55;3.05;;;13.50;1.00;;;;;;4977560;28;20038;-35
2023/12/19 01:42:24;;;;;;;7.68;3.42;;;13.10;1.00;;;;;;4965580;28;20071;-39
2023/12/19 01:45:12;;;;;;;5.57;3.03;;;13.20;1.00;;;;;;4966255;28;20035;-36
2023/12/19 01:47:43;;;;;;;6.60;3.15;;;13.20;1.00;;;;;;4969241;28;20039;-40
2023/12/19 01:50:12;;;;;;;6.32;3.00;;;13.70;1.00;;;;;;4967980;28;20118;-36
2023/12/19 01:52:41;;;;;;;8.77;3.40;;;13.40;1.00;;;;;;4971876;28;20030;-35
2023/12/19 01:55:08;;;;;;;6.40;2.90;;;13.60;1.00;;;;;;4972566;28;20062;-35
2023/12/19 01:57:35;;;;;;;5.93;3.13;;;13.50;1.00;;;;;;4973632;28;20049;-36
2023/12/19 02:00:01;;;;;;;6.57;3.40;;;13.90;1.00;;;;;;4987470;28;20612;-35
2023/12/19 02:02:27;;;;;;;7.28;3.28;;;13.70;1.00;;;;;;4972990;28;20233;-35
2023/12/19 02:04:58;;;;;;;7.20;3.00;;;13.90;1.00;;;;;;4971758;28;20038;-35
2023/12/19 02:07:23;;;;;;;7.28;3.33;;;13.20;1.00;;;;;;4972066;28;20366;-37
2023/12/19 02:09:50;;;;;;;6.15;3.08;;;14.00;1.00;;;;;;4973290;28;20550;-35
2023/12/19 02:12:16;;;;;;;7.97;3.15;;;13.20;1.00;;;;;;4988274;28;20407;-35
2023/12/19 02:14:43;;;;;;;6.63;3.30;;;13.20;1.00;;;;;;4971814;28;20027;-35
2023/12/19 02:17:11;;;;;;;6.60;3.47;;;13.50;1.00;;;;;;4971694;28;20565;-38
2023/12/19 02:19:47;;;;;;;7.40;3.63;;;13.00;1.00;;;;;;4982416;28;20101;-35
2023/12/19 02:22:13;;;;;;;6.38;2.53;;;13.90;1.00;;;;;;4984564;28;20402;-36
2023/12/19 02:24:39;;;;;;;6.60;2.70;;;13.40;1.00;;;;;;4973324;28;20034;-35
2023/12/19 02:27:06;;;;;;;7.72;3.05;;;12.80;1.00;;;;;;4969186;28;20038;-37
2023/12/19 02:29:31;;;;;;;6.22;2.97;;;13.10;1.00;;;;;;4981157;28;20073;-35
2023/12/19 02:31:58;;;;;;;6.13;2.83;;;12.90;1.00;;;;;;4972426;28;20070;-35
2023/12/19 02:34:24;;;;;;;5.53;2.85;;;13.30;1.00;;;;;;4971518;28;20644;-35
2023/12/19 02:36:49;;;;;;;5.85;2.78;;;13.00;1.00;;;;;;4971753;28;20069;-35
2023/12/19 02:39:15;;;;;;;5.78;2.80;;;12.80;1.00;;;;;;4966727;28;20459;-35
2023/12/19 02:41:41;;;;;;;6.75;2.80;;;13.50;1.00;;;;;;4969205;28;20053;-36
2023/12/19 02:44:06;;;;;;;6.57;2.78;;;13.10;1.00;;;;;;4969957;28;20520;-38
2023/12/19 02:46:32;;;;;;;5.13;2.53;;;13.70;1.00;;;;;;4967671;28;20047;-38
2023/12/19 02:48:59;;;;;;;5.60;2.58;;;13.20;1.00;;;;;;4968487;28;20426;-34
2023/12/19 02:51:25;;;;;;;5.40;2.85;;;13.50;1.00;;;;;;4982598;28;20493;-40
2023/12/19 02:53:52;;;;;;;7.20;2.80;;;13.40;1.00;;;;;;4980187;28;20101;-38
2023/12/19 02:56:17;;;;;;;5.38;2.55;;;13.40;1.00;;;;;;4965750;28;20041;-37
2023/12/19 02:58:43;;;;;;;6.60;2.60;;;13.10;1.00;;;;;;4968533;28;20039;-38
2023/12/19 03:01:09;;;;;;;5.57;2.65;;;13.90;1.00;;;;;;4969209;28;20495;-40
2023/12/19 03:03:35;;;;;;;5.47;2.50;;;13.70;1.00;;;;;;4970851;28;20082;-35
2023/12/19 03:06:01;;;;;;;5.15;2.40;;;13.60;1.00;;;;;;4970381;28;20034;-36
2023/12/19 03:08:27;;;;;;;6.28;2.70;;;13.80;1.00;;;;;;4971156;28;20039;-36
2023/12/19 03:10:53;;;;;;;5.25;2.58;;;13.50;1.00;;;;;;4968614;28;20042;-37
2023/12/19 03:13:18;;;;;;;5.70;2.58;;;13.60;1.00;;;;;;4971153;28;20415;-36
2023/12/19 03:15:44;;;;;;;6.22;3.03;;;13.10;1.00;;;;;;4971265;28;20410;-37
2023/12/19 03:18:10;;;;;;;5.32;2.38;;;13.20;1.00;;;;;;4968932;28;20677;-35
2023/12/19 03:20:35;;;;;;;5.00;2.42;;;13.70;1.00;;;;;;4986615;28;20038;-35
2023/12/19 03:23:02;;;;;;;6.82;2.10;;;13.60;1.00;;;;;;4969972;28;20046;-35
2023/12/19 03:25:27;;;;;;;4.97;2.30;;;13.10;1.00;;;;;;4968914;28;20077;-35
2023/12/19 03:27:53;;;;;;;4.80;2.55;;;13.80;1.00;;;;;;4970584;28;20498;-35
2023/12/19 03:30:19;;;;;;;5.25;2.30;;;13.50;1.00;;;;;;4969802;28;20039;-38
2023/12/19 03:32:45;;;;;;;6.13;2.15;;;13.70;1.00;;;;;;4970767;28;20026;-38
2023/12/19 03:35:14;;;;;;;5.28;2.28;;;13.80;3.20;;;;;;4981179;28;20499;-35
2023/12/19 03:37:39;;;;;;;5.03;2.47;;;13.70;8.60;;;;;;4969703;28;20039;-38
2023/12/19 03:40:06;;;;;;;5.00;1.88;;;13.90;9.00;;;;;;4970579;28;20392;-37
2023/12/19 03:42:33;;;;;;;5.10;2.20;;;13.80;11.20;;;;;;4969172;28;20062;-38
2023/12/19 03:44:59;;;;;;;4.95;2.00;;;13.60;16.40;;;;;;4971638;28;20089;-35
2023/12/19 03:47:24;;;;;;;5.32;2.22;;;13.90;15.70;;;;;;4952997;28;20043;-36
2023/12/19 03:49:50;;;;;;;5.20;2.10;;;14.00;18.40;;;;;;4966037;28;20090;-38
2023/12/19 03:52:15;;;;;;;5.10;2.10;;;14.10;23.90;;;;;;4970946;28;20035;-36
2023/12/19 03:54:41;;;;;;;6.35;2.22;;;13.60;22.40;;;;;;4968832;28;20039;-36
2023/12/19 03:57:07;;;;;;;5.38;2.22;;;13.70;28.80;;;;;;4970342;28;20042;-37
2023/12/19 03:59:32;;;;;;;5.25;2.00;;;13.70;31.80;;;;;;4969104;28;20498;-36
2023/12/19 04:01:59;;;;;;;4.80;1.88;;;14.10;35.00;;;;;;4969881;28;20063;-35
2023/12/19 04:04:25;;;;;;;4.47;1.90;;;14.20;35.40;;;;;;4968605;28;20414;-35
2023/12/19 04:06:51;;;;;;;4.93;2.17;;;14.00;44.00;;;;;;4968956;28;20038;-34
2023/12/19 04:09:16;;;;;;;4.70;1.90;;;14.20;40.30;;;;;;4970491;28;20039;-35
2023/12/19 04:11:47;;;;;;;4.82;2.03;;;13.80;48.10;;;;;;4971257;28;20133;-35
2023/12/19 04:14:14;;;;;;;5.53;2.00;;;13.70;51.40;;;;;;4970383;28;20039;-36
2023/12/19 04:16:40;;;;;;;6.03;2.22;;;14.30;54.70;;;;;;4970271;28;20050;-37
2023/12/19 04:19:06;;;;;;;5.28;1.90;;;14.00;56.90;;;;;;4970467;28;20182;-36
2023/12/19 04:21:32;;;;;;;4.72;1.80;;;13.80;55.10;;;;;;4969312;28;20042;-38
2023/12/19 04:23:57;;;;;;;4.90;1.85;;;14.70;58.20;;;;;;4966846;28;20046;-38
2023/12/19 04:26:23;;;;;;;4.85;1.80;;;13.90;54.50;;;;;;4969793;28;20039;-35
2023/12/19 04:28:48;;;;;;;4.43;1.75;;;13.80;61.90;;;;;;4969573;28;20034;-38
2023/12/19 04:31:14;;;;;;;4.60;1.98;;;13.70;63.00;;;;;;4970382;28;20443;-38
2023/12/19 04:33:40;;;;;;;4.32;1.95;;;14.10;62.10;;;;;;4969968;28;20663;-35
2023/12/19 04:36:09;;;;;;;4.75;2.15;;;14.40;61.60;;;;;;4968563;28;20068;-35
2023/12/19 04:38:36;;;;;;;4.68;1.80;;;14.20;71.10;;;;;;4969819;28;20046;-37
2023/12/19 04:41:03;;;;;;;5.20;1.98;;;14.20;71.50;;;;;;4969830;28;20043;-38
2023/12/19 04:43:28;;;;;;;4.68;2.05;;;14.70;73.90;;;;;;4983380;28;20077;-36
2023/12/19 04:45:54;;;;;;;4.72;1.90;;;13.70;69.00;;;;;;4968253;28;20035;-36
2023/12/19 04:48:19;;;;;;;4.93;1.77;;;14.30;73.50;;;;;;4968275;28;20083;-37
2023/12/19 04:50:45;;;;;;;5.72;1.88;;;14.10;76.80;;;;;;4981131;28;20046;-38
2023/12/19 04:53:12;;;;;;;4.60;1.80;;;14.10;77.20;;;;;;4970804;28;20050;-37
2023/12/19 04:55:37;;;;;;;4.70;1.88;;;14.40;80.00;;;;;;4967297;28;20490;-37
2023/12/19 04:58:04;;;;;;;4.75;2.00;;;14.50;85.70;;;;;;4970654;28;20046;-35
2023/12/19 05:00:29;;;;;;;4.90;1.90;;;14.00;84.90;;;;;;4962311;28;20047;-39
2023/12/19 05:02:55;;;;;;;4.45;1.60;;;14.90;85.00;;;;;;4967203;28;20042;-36
2023/12/19 05:05:21;;;;;;;5.22;1.90;;;14.30;80.40;;;;;;4971567;28;20051;-38
2023/12/19 05:07:47;;;;;;;4.65;1.60;;;14.10;85.80;;;;;;4961400;28;20405;-38
2023/12/19 05:10:12;;;;;;;4.00;1.58;;;14.30;86.30;;;;;;4955623;28;20579;-38
2023/12/19 05:12:38;;;;;;;4.55;1.60;;;14.30;87.90;;;;;;4965397;28;20035;-36
2023/12/19 05:15:04;;;;;;;4.70;1.83;;;14.40;90.40;;;;;;4967572;28;20125;-35
2023/12/19 05:17:31;;;;;;;4.25;1.83;;;14.10;90.00;;;;;;4968031;28;20053;-37
2023/12/19 05:19:56;;;;;;;4.70;1.70;;;14.60;86.70;;;;;;4950213;28;20031;-35
2023/12/19 05:22:22;;;;;;;4.10;1.60;;;14.20;90.40;;;;;;4966540;28;20058;-42
2023/12/19 05:24:48;;;;;;;4.28;1.65;;;14.40;86.90;;;;;;4949977;28;20105;-34
2023/12/19 05:27:14;;;;;;;3.50;1.30;;;14.10;91.40;;;;;;4973165;28;20039;-38
2023/12/19 05:29:40;;;;;;;5.75;1.70;;;14.40;91.20;;;;;;4973167;28;20039;-35
2023/12/19 05:32:06;;;;;;;4.30;1.65;;;14.60;86.00;;;;;;4973705;28;20038;-35
2023/12/19 05:34:32;;;;;;;5.97;1.98;;;14.80;90.20;;;;;;4973022;28;20503;-35
2023/12/19 05:36:58;;;;;;;11.10;2.70;;;14.60;91.30;;;;;;4972345;28;20038;-39
2023/12/19 05:39:24;;;;;;;38.70;10.38;;;14.40;97.30;;;;;;4966353;28;20034;-38
2023/12/19 05:41:51;;;;;;;33.42;11.20;;;14.70;99.90;;;;;;4966767;28;20305;-39
2023/12/19 05:44:17;;;;;;;63.50;15.85;;;14.80;99.90;;;;;;4971547;28;20088;-35
2023/12/19 05:46:43;;;;;;;60.10;18.90;;;14.30;99.90;;;;;;4973948;28;20509;-34
2023/12/19 05:49:09;;;;;;;49.42;15.20;;;14.90;99.90;;;;;;4972221;28;20486;-36
2023/12/19 05:51:39;;;;;;;46.55;13.90;;;14.70;99.90;;;;;;4976173;28;20043;-38
2023/12/19 05:54:07;;;;;;;25.30;9.50;;;15.20;99.90;;;;;;4972470;28;20069;-38
2023/12/19 05:56:33;;;;;;;25.27;9.55;;;14.50;99.90;;;;;;4967727;28;20042;-35
2023/12/19 05:58:59;;;;;;;25.73;9.45;;;14.90;99.90;;;;;;4968461;28;20490;-36
2023/12/19 06:01:25;;;;;;;28.42;8.40;;;15.20;99.90;;;;;;4968979;28;20046;-37
2023/12/19 06:03:51;;;;;;;26.70;9.38;;;14.90;99.90;;;;;;4969557;28;20351;-36
2023/12/19 06:06:17;;;;;;;32.20;9.90;;;15.10;99.90;;;;;;4970788;28;20074;-35
2023/12/19 06:08:43;;;;;;;28.50;8.70;;;15.70;99.90;;;;;;4964281;28;20486;-34
2023/12/19 06:11:09;;;;;;;27.77;8.60;;;14.80;99.90;;;;;;4965221;28;20482;-34
2023/12/19 06:13:35;;;;;;;22.50;8.02;;;15.00;99.90;;;;;;4972895;28;20070;-34
2023/12/19 06:16:00;;;;;;;24.08;8.43;;;15.20;99.90;;;;;;4973456;28;20116;-35
2023/12/19 06:18:26;;;;;;;23.90;11.82;;;15.10;99.90;;;;;;4973996;28;20494;-38
2023/12/19 06:21:00;;;;;;;23.67;9.85;;;14.90;99.90;;;;;;4967500;28;20522;-37
2023/12/19 06:23:27;;;;;;;18.13;9.38;;;14.90;99.90;;;;;;4972023;28;20043;-38
2023/12/19 06:25:54;;;;;;;12.63;5.90;;;14.80;99.90;;;;;;4969772;28;20043;-34
2023/12/19 06:28:19;;;;;;;15.25;5.72;;;14.70;99.90;;;;;;4970410;28;20046;-35
2023/12/19 06:30:45;;;;;;;10.45;5.05;;;15.00;99.90;;;;;;4969373;28;20031;-37
2023/12/19 06:33:11;;;;;;;12.68;5.07;;;14.50;99.90;;;;;;4967665;28;20039;-34
2023/12/19 06:35:43;;;;;;;12.65;5.38;;;14.20;99.90;;;;;;4969418;28;20186;-36
2023/12/19 06:38:09;;;;;;;10.20;4.95;;;15.00;99.90;;;;;;4969191;28;20050;-37
2023/12/19 06:40:39;;;;;;;12.13;4.75;;;14.00;99.90;;;;;;4969381;28;20056;-35
2023/12/19 06:43:05;;;;;;;9.75;4.13;;;14.60;99.90;;;;;;4972317;28;20034;-35
2023/12/19 06:45:32;;;;;;;8.65;4.00;;;14.40;99.90;;;;;;4970210;28;20074;-36
2023/12/19 06:48:01;;;;;;;8.07;4.40;;;14.40;99.90;;;;;;4969990;28;20069;-34
2023/12/19 06:50:28;;;;;;;7.90;3.97;;;14.50;99.90;;;;;;4972778;28;20042;-34
2023/12/19 06:52:54;;;;;;;7.85;3.90;;;14.40;99.90;;;;;;4972561;28;20377;-36
2023/12/19 06:55:20;;;;;;;6.70;3.70;;;14.50;99.90;;;;;;4972584;28;20130;-35
2023/12/19 06:57:46;;;;;;;7.22;3.50;;;14.30;99.90;;;;;;4973120;28;20506;-34
2023/12/19 07:00:12;;;;;;;5.78;3.00;;;15.10;99.90;;;;;;4973235;28;20042;-38
2023/12/19 07:02:41;;;;;;;5.63;2.92;;;14.10;99.90;;;;;;4968951;28;20062;-37
2023/12/19 07:05:07;;;;;;;8.57;3.63;;;14.00;99.90;;;;;;4971240;28;20051;-35
2023/12/19 07:07:33;;;;;;;7.10;2.83;;;14.20;99.90;;;;;;4968502;28;20039;-35
2023/12/19 07:09:59;;;;;;;8.18;3.15;;;14.30;99.90;;;;;;4971884;28;20031;-38
2023/12/19 07:12:25;;;;;;;6.97;2.78;;;13.70;99.90;;;;;;4976088;28;20046;-36
2023/12/19 07:14:50;;;;;;;5.50;2.72;;;14.50;99.90;;;;;;4972389;28;20042;-34
2023/12/19 07:17:17;;;;;;;6.43;2.53;;;13.90;99.90;;;;;;4970329;28;20039;-36
2023/12/19 07:19:43;;;;;;;5.40;2.80;;;14.40;99.90;;;;;;4985750;28;20038;-34
2023/12/19 07:22:10;;;;;;;5.05;2.40;;;13.70;99.90;;;;;;4972184;28;20506;-34
2023/12/19 07:24:36;;;;;;;5.25;2.30;;;14.30;99.90;;;;;;4971421;28;20422;-37
2023/12/19 07:27:03;;;;;;;5.55;2.35;;;14.50;99.90;;;;;;4963433;28;20043;-36
2023/12/19 07:29:33;;;;;;;5.00;2.28;;;14.00;99.90;;;;;;4954561;28;20447;-35
2023/12/19 07:32:00;;;;;;;5.53;2.20;;;14.20;99.90;;;;;;4969406;28;20042;-36
2023/12/19 07:34:26;;;;;;;4.80;2.08;;;14.40;99.90;;;;;;4968148;28;20521;-36
2023/12/19 07:36:52;;;;;;;5.45;2.20;;;14.10;99.90;;;;;;4969440;28;20125;-38
2023/12/19 07:39:17;;;;;;;5.38;2.05;;;14.10;99.90;;;;;;4970207;28;20046;-36
2023/12/19 07:41:43;;;;;;;4.65;2.13;;;13.70;99.90;;;;;;4967429;28;20039;-38
2023/12/19 07:44:13;;;;;;;4.65;2.45;;;14.20;99.90;;;;;;4964953;28;20039;-34
2023/12/19 07:46:42;;;;;;;5.38;1.95;;;14.20;99.90;;;;;;4959745;28;20139;-36
2023/12/19 07:49:11;;;;;;;4.88;1.90;;;13.90;99.90;;;;;;4964356;28;20415;-37
2023/12/19 07:51:37;;;;;;;5.60;2.13;;;13.80;99.90;;;;;;4962399;28;20043;-38
2023/12/19 07:54:03;;;;;;;4.60;1.98;;;13.90;99.90;;;;;;4971587;28;20027;-39
2023/12/19 07:56:29;;;;;;;5.78;1.92;;;14.10;99.90;;;;;;4968002;28;20117;-38
2023/12/19 07:58:54;;;;;;;5.53;2.00;;;13.80;99.90;;;;;;4969937;28;20501;-35
2023/12/19 08:01:21;;;;;;;4.03;1.88;;;14.00;99.90;;;;;;4968796;28;20045;-34
2023/12/19 08:03:49;;;;;;;4.28;1.70;;;14.00;99.90;;;;;;4983492;28;20117;-36
2023/12/19 08:06:15;;;;;;;5.90;1.75;;;14.20;99.90;;;;;;4970497;28;20272;-35
2023/12/19 08:08:41;;;;;;;6.30;1.83;;;13.70;99.90;;;;;;4968665;28;20061;-35
2023/12/19 08:11:07;;;;;;;4.18;1.80;;;14.30;99.90;;;;;;4968725;28;20693;-37
2023/12/19 08:13:34;;;;;;;4.85;1.90;;;14.30;99.90;;;;;;4971421;28;20039;-38
2023/12/19 08:16:05;;;;;;;5.88;1.60;;;14.60;99.90;;;;;;4968209;28;20419;-43
2023/12/19 08:18:30;;;;;;;4.60;1.70;;;14.30;99.90;;;;;;4966881;28;20061;-40
2023/12/19 08:21:03;;;;;;;4.40;1.85;;;14.20;99.90;;;;;;4967187;28;20589;-36
2023/12/19 08:23:29;;;;;;;4.72;2.03;;;14.50;99.90;;;;;;4969954;28;20058;-38
2023/12/19 08:25:54;;;;;;;4.82;1.80;;;14.20;99.90;;;;;;4970532;28;20050;-37
2023/12/19 08:28:20;;;;;;;4.70;1.60;;;14.40;99.90;;;;;;4969461;28;20046;-35
2023/12/19 08:30:48;;;;;;;4.97;2.03;;;14.00;99.90;;;;;;4968359;28;20376;-35
2023/12/19 08:33:14;;;;;;;5.05;1.90;;;14.40;99.90;;;;;;4968967;28;20252;-35
2023/12/19 08:35:44;;;;;;;4.20;1.90;;;14.30;99.90;;;;;;4981958;28;20557;-34
2023/12/19 08:38:10;;;;;;;4.18;1.55;;;14.40;99.90;;;;;;4965233;28;20430;-35
2023/12/19 08:40:39;;;;;;;5.07;2.13;;;14.50;99.90;;;;;;4966233;28;20041;-40
2023/12/19 08:43:04;;;;;;;6.38;1.80;;;14.50;99.90;;;;;;4962072;28;20942;-36
2023/12/19 08:45:42;;;;;;;4.10;1.70;;;13.90;99.90;;;;;;4963722;28;20046;-39
2023/12/19 08:48:17;;;;;;;6.22;2.00;;;13.90;99.90;;;;;;4962468;28;20073;-35
2023/12/19 08:50:43;;;;;;;4.70;2.08;;;14.20;99.90;;;;;;4966986;28;20039;-39
2023/12/19 08:53:12;;;;;;;5.15;1.77;;;14.20;99.90;;;;;;4967712;28;20046;-35
2023/12/19 08:55:39;;;;;;;4.70;1.88;;;13.70;99.90;;;;;;4966523;28;20553;-38
2023/12/19 08:58:05;;;;;;;4.20;1.75;;;14.00;99.90;;;;;;4968742;28;20043;-35
2023/12/19 09:00:35;;;;;;;5.93;2.00;;;14.10;99.90;;;;;;4970060;28;20098;-41
2023/12/19 09:03:01;;;;;;;4.60;1.85;;;14.00;99.90;;;;;;4970784;28;20042;-37
2023/12/19 09:05:26;;;;;;;4.80;1.95;;;14.70;99.90;;;;;;4970646;28;20137;-37
2023/12/19 09:07:52;;;;;;;4.30;1.75;;;14.50;99.90;;;;;;4971524;28;20049;-37
2023/12/19 09:10:20;;;;;;;5.70;2.03;;;14.00;99.90;;;;;;4970192;28;20790;-34
2023/12/19 09:12:46;;;;;;;4.25;1.50;;;14.30;99.90;;;;;;4970249;28;20030;-35
2023/12/19 09:15:12;;;;;;;5.22;1.92;;;13.90;99.90;;;;;;4969514;28;20066;-34
2023/12/19 09:17:38;;;;;;;4.28;1.50;;;13.90;99.90;;;;;;4967767;28;20026;-37
2023/12/19 09:20:07;;;;;;;4.45;1.67;;;13.90;99.90;;;;;;4968087;28;20038;-40
2023/12/19 09:22:33;;;;;;;4.22;1.80;;;14.00;99.90;;;;;;4967399;28;20129;-41
2023/12/19 09:24:59;;;;;;;4.97;1.48;;;14.50;99.90;;;;;;4970392;28;20044;-37
2023/12/19 09:27:25;;;;;;;3.63;1.45;;;14.20;99.90;;;;;;4970200;28;20030;-36
2023/12/19 09:29:54;;;;;;;4.47;1.70;;;13.50;99.90;;;;;;4967479;28;20041;-34
2023/12/19 09:32:19;;;;;;;4.80;1.90;;;14.00;99.90;;;;;;4952383;28;20087;-34
2023/12/19 09:34:46;;;;;;;4.50;2.00;;;14.30;99.90;;;;;;4968662;28;20070;-35
2023/12/19 09:37:12;;;;;;;5.35;2.00;;;14.50;99.90;;;;;;4968610;28;20123;-35
2023/12/19 09:39:40;;;;;;;4.43;1.60;;;13.80;99.90;;;;;;4965533;28;20035;-37
2023/12/19 09:42:06;;;;;;;4.18;1.75;;;14.00;99.90;;;;;;4966088;28;20457;-37
2023/12/19 09:44:35;;;;;;;4.45;1.90;;;13.90;99.90;;;;;;4967563;28;20050;-36
2023/12/19 09:47:02;;;;;;;4.35;1.65;;;14.20;99.90;;;;;;4966446;28;20039;-35
2023/12/19 09:49:32;;;;;;;5.00;1.90;;;13.80;99.90;;;;;;4968406;28;20043;-35
2023/12/19 09:51:59;;;;;;;4.70;1.60;;;13.90;99.90;;;;;;4967512;28;20518;-37
2023/12/19 09:54:25;;;;;;;4.78;1.50;;;14.00;99.90;;;;;;4978516;28;20039;-36
2023/12/19 09:56:53;;;;;;;4.82;1.63;;;14.30;99.90;;;;;;4967851;28;20550;-37
2023/12/19 09:59:22;;;;;;;3.97;1.63;;;13.90;99.90;;;;;;4968659;28;20074;-38
2023/12/19 10:01:48;;;;;;;3.70;1.60;;;13.60;99.90;;;;;;4965805;28;20074;-37
2023/12/19 10:04:14;;;;;;;4.68;1.60;;;14.30;99.90;;;;;;4966029;28;20135;-34
2023/12/19 10:06:41;;;;;;;4.65;1.88;;;13.80;99.90;;;;;;4967299;28;20031;-35
2023/12/19 10:09:08;;;;;;;4.38;1.60;;;14.30;99.90;;;;;;4968387;28;20452;-36
2023/12/19 10:11:38;;;;;;;3.45;1.30;;;15.10;99.90;;;;;;4965787;28;20031;-36
2023/12/19 10:14:11;;;;;;;4.53;1.70;;;14.10;99.90;;;;;;4972296;28;20042;-38
2023/12/19 10:16:43;;;;;;;4.10;1.58;;;14.00;99.90;;;;;;4973564;28;20494;-36
2023/12/19 10:19:13;;;;;;;4.53;1.80;;;;;;;;;;4971869;28;20039;-37
2023/12/19 10:21:40;;;;;;;4.55;1.90;;;14.30;99.90;;;;;;4972282;28;20050;-36
2023/12/19 10:24:07;;;;;;;5.85;2.10;;;14.10;99.90;;;;;;4972378;28;20511;-34
2023/12/19 10:26:33;;;;;;;5.28;2.05;;;13.90;99.90;;;;;;4970721;28;20506;-35
2023/12/19 10:28:59;;;;;;;5.10;2.35;;;14.30;99.90;;;;;;4972755;28;20086;-34
2023/12/19 10:31:24;;;;;;;5.00;2.63;;;14.30;99.90;;;;;;4965164;28;20098;-40
2023/12/19 10:33:54;;;;;;;4.70;1.80;;;14.30;99.90;;;;;;4966127;28;20047;-37
2023/12/19 10:36:24;;;;;;;5.15;2.00;;;14.10;99.90;;;;;;4984254;28;20031;-34
2023/12/19 10:38:50;;;;;;;4.57;2.00;;;14.60;99.90;;;;;;4969168;28;20038;-36
2023/12/19 10:41:23;;;;;;;4.22;1.63;;;14.50;99.90;;;;;;4970888;28;20042;-34
2023/12/19 10:43:51;;;;;;;4.00;1.63;;;14.00;99.90;;;;;;4971907;28;20117;-35
2023/12/19 10:46:18;;;;;;;4.60;1.75;;;14.10;99.90;;;;;;4970657;28;20057;-36
2023/12/19 10:48:45;;;;;;;5.05;1.90;;;14.00;99.90;;;;;;4972945;28;20070;-34
2023/12/19 10:51:23;;;;;;;4.53;1.80;;;13.90;99.90;;;;;;4968868;28;20499;-36
2023/12/19 10:53:58;;;;;;;6.50;2.08;;;13.60;99.90;;;;;;4967254;28;20126;-37
2023/12/19 10:56:24;;;;;;;4.00;1.75;;;13.80;99.90;;;;;;4972405;28;20565;-34
2023/12/19 10:58:58;;;;;;;4.07;1.65;;;14.50;99.90;;;;;;4972451;28;20060;-34
2023/12/19 11:01:26;;;;;;;4.45;1.77;;;14.30;99.90;;;;;;4972302;28;20545;-37
2023/12/19 11:03:59;;;;;;;4.75;1.90;;;14.00;99.90;;;;;;4972729;28;20043;-35
2023/12/19 11:06:31;;;;;;;4.22;1.60;;;14.20;99.90;;;;;;4971691;28;20443;-37
2023/12/19 11:09:03;;;;;;;4.90;1.70;;;14.00;99.90;;;;;;4972158;28;20494;-36
2023/12/19 11:11:36;;;;;;;4.90;1.48;;;14.20;99.90;;;;;;4970996;28;20035;-34
2023/12/19 11:14:02;;;;;;;5.00;1.67;;;14.10;99.90;;;;;;4971889;28;20058;-34
2023/12/19 11:16:53;;;;;;;4.07;1.60;;;14.00;99.90;;;;;;4971609;28;20050;-37
2023/12/19 11:19:40;;;;;;;4.18;1.55;;;13.60;99.90;;;;;;4971891;28;20078;-35
2023/12/19 11:22:31;;;;;;;4.60;1.70;;;13.70;99.90;;;;;;4971571;28;20051;-35
2023/12/19 11:25:20;;;;;;;4.38;1.50;;;13.90;99.90;;;;;;4971262;28;20050;-38
2023/12/19 11:27:55;;;;;;;4.10;1.52;;;14.10;99.90;;;;;;4967267;28;20039;-35
2023/12/19 11:30:32;;;;;;;4.47;1.60;;;14.50;99.90;;;;;;4971148;28;20042;-35
2023/12/19 11:32:58;;;;;;;4.60;2.25;;;13.90;99.90;;;;;;4972034;28;20051;-34
2023/12/19 11:35:28;;;;;;;3.90;1.70;;;14.20;99.90;;;;;;4970961;28;20035;-35
2023/12/19 11:38:25;;;;;;;4.55;1.88;;;13.90;99.90;;;;;;4972077;28;20097;-35
2023/12/19 11:40:57;;;;;;;4.20;1.45;;;13.50;99.90;;;;;;4968263;28;20082;-35
2023/12/19 11:43:29;;;;;;;4.78;1.85;;;13.80;99.90;;;;;;4965618;28;20359;-34
2023/12/19 11:46:15;;;;;;;4.15;1.58;;;14.40;99.90;;;;;;4967273;28;20043;-37
2023/12/19 11:48:51;;;;;;;4.68;1.60;;;13.90;99.90;;;;;;4968125;28;20031;-35
2023/12/19 11:51:41;;;;;;;4.60;1.42;;;13.80;99.90;;;;;;4969588;28;20494;-34
2023/12/19 11:54:10;;;;;;;3.88;1.50;;;14.00;99.90;;;;;;4986157;28;20447;-36
2023/12/19 11:56:38;;;;;;;4.20;1.48;;;14.20;99.90;;;;;;4969607;28;20045;-34
2023/12/19 11:59:03;;;;;;;4.13;1.40;;;13.60;99.90;;;;;;4969609;28;20042;-34
2023/12/19 12:01:41;;;;;;;4.55;1.88;;;13.80;99.90;;;;;;4967501;28;20042;-34
2023/12/19 12:04:07;;;;;;;4.78;1.45;;;14.00;99.90;;;;;;4968594;28;20054;-34
2023/12/19 12:06:34;;;;;;;5.22;2.00;;;14.10;99.90;;;;;;4966423;28;20062;-35
2023/12/19 12:08:59;;;;;;;3.25;1.17;;;13.90;99.90;;;;;;4968619;28;20031;-35
2023/12/19 12:11:26;;;;;;;3.55;1.20;;;14.20;99.90;;;;;;4967820;28;20394;-37
2023/12/19 12:14:03;;;;;;;4.68;1.85;;;14.80;99.90;;;;;;4967875;28;20038;-37
2023/12/19 12:16:36;;;;;;;4.35;1.55;;;13.40;99.90;;;;;;4966392;28;20110;-36
2023/12/19 12:19:18;;;;;;;3.85;1.35;;;13.70;99.90;;;;;;4984165;28;20042;-36
2023/12/19 12:21:49;;;;;;;3.72;1.25;;;13.70;99.90;;;;;;4968384;28;20380;-34
2023/12/19 12:24:21;;;;;;;3.90;1.50;;;14.10;99.90;;;;;;4969057;28;20039;-35
2023/12/19 12:26:48;;;;;;;3.47;1.23;;;13.70;99.90;;;;;;4969870;28;20128;-37
2023/12/19 12:29:16;;;;;;;4.30;1.40;;;13.60;99.90;;;;;;4967965;28;20045;-35
2023/12/19 12:31:42;;;;;;;4.00;1.38;;;13.50;99.90;;;;;;4968205;28;20117;-35
2023/12/19 12:34:07;;;;;;;3.08;1.00;;;14.00;99.90;;;;;;4969415;28;20529;-37
2023/12/19 12:36:33;;;;;;;2.85;1.00;;;13.30;99.90;;;;;;4968554;28;20086;-36
2023/12/19 12:38:59;;;;;;;3.35;1.15;;;14.10;99.90;;;;;;4970653;28;20038;-36
2023/12/19 12:41:25;;;;;;;3.28;1.13;;;13.90;99.90;;;;;;4970118;28;20122;-35
2023/12/19 12:43:50;;;;;;;4.00;1.13;;;13.50;99.90;;;;;;4971125;28;20046;-34
2023/12/19 12:46:24;;;;;;;3.28;1.10;;;13.70;99.90;;;;;;4969197;28;20051;-34
2023/12/19 12:48:52;;;;;;;3.95;1.20;;;14.00;99.90;;;;;;4970597;28;20415;-35